sensor_id;sensor_type;location;lat;lon;timestamp;temperature;humidity
18317;DHT22;9284;52.298;21.164;2023-07-20T00:01:53;15.50;99.90
18317;DHT22;9284;52.298;21.164;2023-07-20T00:04:22;15.50;99.90
18317;DHT22;9284;52.298;21.164;2023-07-20T00:06:50;15.40;99.90
18317;DHT22;9284;52.298;21.164;2023-07-20T00:09:19;15.40;1.00
18317;DHT22;9284;52.298;21.164;2023-07-20T00:11:49;15.40;1.00
18317;DHT22;9284;52.298;21.164;2023-07-20T00:14:18;15.30;1.00
18317;DHT22;9284;52.298;21.164;2023-07-20T00:16:50;15.40;1.00
18317;DHT22;9284;52.298;21.164;2023-07-20T00:19:23;15.40;1.00
18317;DHT22;9284;52.298;21.164;2023-07-20T00:21:51;15.50;1.00
18317;DHT22;9284;52.298;21.164;2023-07-20T00:24:20;15.40;1.00
18317;DHT22;9284;52.298;21.164;2023-07-20T00:26:49;15.50;1.00
18317;DHT22;9284;52.298;21.164;2023-07-20T00:29:18;15.50;1.00
18317;DHT22;9284;52.298;21.164;2023-07-20T00:31:47;15.60;1.00
18317;DHT22;9284;52.298;21.164;2023-07-20T00:34:18;15.60;1.00
18317;DHT22;9284;52.298;21.164;2023-07-20T00:36:46;15.50;1.00
18317;DHT22;9284;52.298;21.164;2023-07-20T00:39:16;15.50;1.00
18317;DHT22;9284;52.298;21.164;2023-07-20T00:41:44;15.50;1.00
18317;DHT22;9284;52.298;21.164;2023-07-20T00:44:12;15.50;1.00
18317;DHT22;9284;52.298;21.164;2023-07-20T00:46:41;15.40;85.90
18317;DHT22;9284;52.298;21.164;2023-07-20T00:49:12;15.40;99.90
18317;DHT22;9284;52.298;21.164;2023-07-20T00:51:41;15.40;99.90
18317;DHT22;9284;52.298;21.164;2023-07-20T00:54:09;15.40;99.90
18317;DHT22;9284;52.298;21.164;2023-07-20T00:56:38;15.50;99.90
18317;DHT22;9284;52.298;21.164;2023-07-20T00:59:07;15.50;99.90
18317;DHT22;9284;52.298;21.164;2023-07-20T01:01:35;15.50;99.90
18317;DHT22;9284;52.298;21.164;2023-07-20T01:04:04;15.50;83.40
18317;DHT22;9284;52.298;21.164;2023-07-20T01:06:41;15.50;93.80
18317;DHT22;9284;52.298;21.164;2023-07-20T01:09:16;15.50;99.90
18317;DHT22;9284;52.298;21.164;2023-07-20T01:11:53;15.50;99.90
18317;DHT22;9284;52.298;21.164;2023-07-20T01:14:23;15.40;99.90
18317;DHT22;9284;52.298;21.164;2023-07-20T01:16:52;15.40;99.90
18317;DHT22;9284;52.298;21.164;2023-07-20T01:19:21;15.40;99.90
18317;DHT22;9284;52.298;21.164;2023-07-20T01:21:55;15.30;99.90
18317;DHT22;9284;52.298;21.164;2023-07-20T01:25:08;15.30;99.90
18317;DHT22;9284;52.298;21.164;2023-07-20T01:28:12;15.30;99.90
18317;DHT22;9284;52.298;21.164;2023-07-20T01:30:52;15.20;99.90
18317;DHT22;9284;52.298;21.164;2023-07-20T01:33:25;15.20;99.90
18317;DHT22;9284;52.298;21.164;2023-07-20T01:35:56;15.20;99.90
18317;DHT22;9284;52.298;21.164;2023-07-20T01:38:26;15.20;1.00
18317;DHT22;9284;52.298;21.164;2023-07-20T01:40:55;15.10;1.00
18317;DHT22;9284;52.298;21.164;2023-07-20T01:43:24;15.10;1.00
18317;DHT22;9284;52.298;21.164;2023-07-20T01:45:52;15.10;1.00
18317;DHT22;9284;52.298;21.164;2023-07-20T01:48:20;15.10;1.00
18317;DHT22;9284;52.298;21.164;2023-07-20T01:50:50;15.10;1.00
18317;DHT22;9284;52.298;21.164;2023-07-20T01:53:19;15.20;1.00
18317;DHT22;9284;52.298;21.164;2023-07-20T01:55:48;15.10;1.00
18317;DHT22;9284;52.298;21.164;2023-07-20T01:58:16;15.20;1.00
18317;DHT22;9284;52.298;21.164;2023-07-20T02:00:45;15.30;1.00
18317;DHT22;9284;52.298;21.164;2023-07-20T02:03:13;15.30;1.00
18317;DHT22;9284;52.298;21.164;2023-07-20T02:05:42;15.40;1.00
18317;DHT22;9284;52.298;21.164;2023-07-20T02:08:12;15.40;99.90
18317;DHT22;9284;52.298;21.164;2023-07-20T02:10:40;15.50;99.90
18317;DHT22;9284;52.298;21.164;2023-07-20T02:13:09;15.50;91.20
18317;DHT22;9284;52.298;21.164;2023-07-20T02:15:37;15.50;21.10
18317;DHT22;9284;52.298;21.164;2023-07-20T02:18:06;15.60;1.00
18317;DHT22;9284;52.298;21.164;2023-07-20T02:20:34;15.70;1.00
18317;DHT22;9284;52.298;21.164;2023-07-20T02:23:02;15.70;1.00
18317;DHT22;9284;52.298;21.164;2023-07-20T02:25:32;15.70;1.00
18317;DHT22;9284;52.298;21.164;2023-07-20T02:28:01;15.70;99.90
18317;DHT22;9284;52.298;21.164;2023-07-20T02:30:30;15.70;99.90
18317;DHT22;9284;52.298;21.164;2023-07-20T02:32:58;15.60;99.90
18317;DHT22;9284;52.298;21.164;2023-07-20T02:35:26;15.70;99.90
18317;DHT22;9284;52.298;21.164;2023-07-20T02:37:55;15.60;99.90
18317;DHT22;9284;52.298;21.164;2023-07-20T02:40:23;15.60;99.90
18317;DHT22;9284;52.298;21.164;2023-07-20T02:42:53;15.60;99.90
18317;DHT22;9284;52.298;21.164;2023-07-20T02:45:21;15.60;52.90
18317;DHT22;9284;52.298;21.164;2023-07-20T02:47:50;15.60;60.80
18317;DHT22;9284;52.298;21.164;2023-07-20T02:50:18;15.60;99.90
18317;DHT22;9284;52.298;21.164;2023-07-20T02:52:46;15.60;99.90
18317;DHT22;9284;52.298;21.164;2023-07-20T02:55:15;15.70;99.90
18317;DHT22;9284;52.298;21.164;2023-07-20T02:57:44;15.70;99.90
18317;DHT22;9284;52.298;21.164;2023-07-20T03:00:14;15.60;99.90
18317;DHT22;9284;52.298;21.164;2023-07-20T03:02:43;15.70;51.40
18317;DHT22;9284;52.298;21.164;2023-07-20T03:05:15;15.70;20.00
18317;DHT22;9284;52.298;21.164;2023-07-20T03:07:44;15.70;99.90
18317;DHT22;9284;52.298;21.164;2023-07-20T03:10:12;15.70;99.90
18317;DHT22;9284;52.298;21.164;2023-07-20T03:12:40;15.60;99.90
18317;DHT22;9284;52.298;21.164;2023-07-20T03:15:10;15.60;99.90
18317;DHT22;9284;52.298;21.164;2023-07-20T03:17:40;15.70;99.90
18317;DHT22;9284;52.298;21.164;2023-07-20T03:20:10;15.60;99.90
18317;DHT22;9284;52.298;21.164;2023-07-20T03:22:40;15.70;99.90
18317;DHT22;9284;52.298;21.164;2023-07-20T03:25:09;15.70;99.90
18317;DHT22;9284;52.298;21.164;2023-07-20T03:27:37;15.70;99.90
18317;DHT22;9284;52.298;21.164;2023-07-20T03:30:07;15.70;99.90
18317;DHT22;9284;52.298;21.164;2023-07-20T03:32:37;15.70;1.00
18317;DHT22;9284;52.298;21.164;2023-07-20T03:35:08;15.70;1.00
18317;DHT22;9284;52.298;21.164;2023-07-20T03:37:36;15.70;1.00
18317;DHT22;9284;52.298;21.164;2023-07-20T03:40:06;15.70;1.00
18317;DHT22;9284;52.298;21.164;2023-07-20T03:42:35;15.70;1.00
18317;DHT22;9284;52.298;21.164;2023-07-20T03:45:04;15.70;99.90
18317;DHT22;9284;52.298;21.164;2023-07-20T03:47:33;15.60;1.00
18317;DHT22;9284;52.298;21.164;2023-07-20T03:50:01;15.50;1.00
18317;DHT22;9284;52.298;21.164;2023-07-20T03:52:31;15.40;99.90
18317;DHT22;9284;52.298;21.164;2023-07-20T03:55:00;15.30;99.90
18317;DHT22;9284;52.298;21.164;2023-07-20T03:57:28;15.30;1.00
18317;DHT22;9284;52.298;21.164;2023-07-20T03:59:59;15.20;99.90
18317;DHT22;9284;52.298;21.164;2023-07-20T04:02:38;15.20;1.00
18317;DHT22;9284;52.298;21.164;2023-07-20T04:05:07;15.10;99.90
18317;DHT22;9284;52.298;21.164;2023-07-20T04:07:37;15.00;1.00
18317;DHT22;9284;52.298;21.164;2023-07-20T04:10:06;14.90;99.90
18317;DHT22;9284;52.298;21.164;2023-07-20T04:12:35;14.80;1.00
18317;DHT22;9284;52.298;21.164;2023-07-20T04:15:04;14.80;1.00
18317;DHT22;9284;52.298;21.164;2023-07-20T04:17:34;14.80;1.00
18317;DHT22;9284;52.298;21.164;2023-07-20T04:20:03;14.90;1.00
18317;DHT22;9284;52.298;21.164;2023-07-20T04:22:32;14.80;7.60
18317;DHT22;9284;52.298;21.164;2023-07-20T04:25:03;14.80;20.80
18317;DHT22;9284;52.298;21.164;2023-07-20T04:27:32;14.70;34.40
18317;DHT22;9284;52.298;21.164;2023-07-20T04:30:00;14.70;73.70
18317;DHT22;9284;52.298;21.164;2023-07-20T04:32:29;14.70;94.60
18317;DHT22;9284;52.298;21.164;2023-07-20T04:35:06;14.60;99.90
18317;DHT22;9284;52.298;21.164;2023-07-20T04:37:38;14.60;99.90
18317;DHT22;9284;52.298;21.164;2023-07-20T04:40:18;14.60;99.90
18317;DHT22;9284;52.298;21.164;2023-07-20T04:42:46;14.70;99.90
18317;DHT22;9284;52.298;21.164;2023-07-20T04:45:15;14.80;99.90
18317;DHT22;9284;52.298;21.164;2023-07-20T04:47:46;14.90;99.90
18317;DHT22;9284;52.298;21.164;2023-07-20T04:50:15;14.90;99.90
18317;DHT22;9284;52.298;21.164;2023-07-20T04:52:43;14.80;99.90
18317;DHT22;9284;52.298;21.164;2023-07-20T04:55:18;14.80;99.90
18317;DHT22;9284;52.298;21.164;2023-07-20T04:57:47;15.00;99.90
18317;DHT22;9284;52.298;21.164;2023-07-20T05:00:16;15.10;99.90
18317;DHT22;9284;52.298;21.164;2023-07-20T05:02:45;15.10;99.90
18317;DHT22;9284;52.298;21.164;2023-07-20T05:05:15;15.20;99.90
18317;DHT22;9284;52.298;21.164;2023-07-20T05:07:44;15.20;99.90
18317;DHT22;9284;52.298;21.164;2023-07-20T05:10:13;15.30;99.90
18317;DHT22;9284;52.298;21.164;2023-07-20T05:12:42;15.30;99.90
18317;DHT22;9284;52.298;21.164;2023-07-20T05:15:11;15.40;99.90
18317;DHT22;9284;52.298;21.164;2023-07-20T05:17:41;15.40;99.90
18317;DHT22;9284;52.298;21.164;2023-07-20T05:20:10;15.40;99.90
18317;DHT22;9284;52.298;21.164;2023-07-20T05:22:40;15.40;99.90
18317;DHT22;9284;52.298;21.164;2023-07-20T05:25:09;15.50;99.90
18317;DHT22;9284;52.298;21.164;2023-07-20T05:27:38;15.50;99.90
18317;DHT22;9284;52.298;21.164;2023-07-20T05:30:09;15.60;99.90
18317;DHT22;9284;52.298;21.164;2023-07-20T05:32:38;15.70;99.90
18317;DHT22;9284;52.298;21.164;2023-07-20T05:35:07;15.70;99.90
18317;DHT22;9284;52.298;21.164;2023-07-20T05:37:38;15.80;99.90
18317;DHT22;9284;52.298;21.164;2023-07-20T05:40:07;15.80;99.90
18317;DHT22;9284;52.298;21.164;2023-07-20T05:42:37;15.80;99.90
18317;DHT22;9284;52.298;21.164;2023-07-20T05:45:08;15.70;99.90
18317;DHT22;9284;52.298;21.164;2023-07-20T05:47:37;15.80;99.90
18317;DHT22;9284;52.298;21.164;2023-07-20T05:50:06;15.80;99.90
18317;DHT22;9284;52.298;21.164;2023-07-20T05:52:34;15.90;99.90
18317;DHT22;9284;52.298;21.164;2023-07-20T05:55:03;15.80;99.90
18317;DHT22;9284;52.298;21.164;2023-07-20T05:57:31;15.90;99.90
18317;DHT22;9284;52.298;21.164;2023-07-20T06:00:00;15.80;99.90
18317;DHT22;9284;52.298;21.164;2023-07-20T06:02:39;15.80;99.90
18317;DHT22;9284;52.298;21.164;2023-07-20T06:05:12;15.70;99.90
18317;DHT22;9284;52.298;21.164;2023-07-20T06:07:41;15.70;97.70
18317;DHT22;9284;52.298;21.164;2023-07-20T06:10:09;15.70;90.60
18317;DHT22;9284;52.298;21.164;2023-07-20T06:12:37;15.70;99.90
18317;DHT22;9284;52.298;21.164;2023-07-20T06:15:24;15.50;99.90
18317;DHT22;9284;52.298;21.164;2023-07-20T06:17:55;15.70;99.90
18317;DHT22;9284;52.298;21.164;2023-07-20T06:20:25;15.70;99.90
18317;DHT22;9284;52.298;21.164;2023-07-20T06:22:54;15.70;99.90
18317;DHT22;9284;52.298;21.164;2023-07-20T06:25:22;15.80;99.90
18317;DHT22;9284;52.298;21.164;2023-07-20T06:27:50;15.80;99.90
18317;DHT22;9284;52.298;21.164;2023-07-20T06:30:19;16.00;99.90
18317;DHT22;9284;52.298;21.164;2023-07-20T06:32:48;16.00;99.90
18317;DHT22;9284;52.298;21.164;2023-07-20T06:35:18;16.10;95.60
18317;DHT22;9284;52.298;21.164;2023-07-20T06:37:47;16.30;84.90
18317;DHT22;9284;52.298;21.164;2023-07-20T06:40:16;16.30;1.00
18317;DHT22;9284;52.298;21.164;2023-07-20T06:42:47;16.30;1.00
18317;DHT22;9284;52.298;21.164;2023-07-20T06:45:18;16.40;1.00
18317;DHT22;9284;52.298;21.164;2023-07-20T06:47:47;16.40;1.00
18317;DHT22;9284;52.298;21.164;2023-07-20T06:50:15;16.40;1.00
18317;DHT22;9284;52.298;21.164;2023-07-20T06:52:45;16.40;1.00
18317;DHT22;9284;52.298;21.164;2023-07-20T06:55:15;16.40;1.00
18317;DHT22;9284;52.298;21.164;2023-07-20T06:57:50;16.40;1.00
18317;DHT22;9284;52.298;21.164;2023-07-20T07:00:24;16.40;1.00
18317;DHT22;9284;52.298;21.164;2023-07-20T07:02:53;16.50;1.00
18317;DHT22;9284;52.298;21.164;2023-07-20T07:05:21;16.50;99.90
18317;DHT22;9284;52.298;21.164;2023-07-20T07:07:51;16.40;1.00
18317;DHT22;9284;52.298;21.164;2023-07-20T07:10:20;16.40;99.90
18317;DHT22;9284;52.298;21.164;2023-07-20T07:12:48;16.30;1.00
18317;DHT22;9284;52.298;21.164;2023-07-20T07:15:16;16.40;1.00
18317;DHT22;9284;52.298;21.164;2023-07-20T07:17:45;16.30;1.00
18317;DHT22;9284;52.298;21.164;2023-07-20T07:20:13;16.30;1.00
18317;DHT22;9284;52.298;21.164;2023-07-20T07:22:44;16.20;1.00
18317;DHT22;9284;52.298;21.164;2023-07-20T07:25:16;16.20;1.00
18317;DHT22;9284;52.298;21.164;2023-07-20T07:27:49;16.20;1.00
18317;DHT22;9284;52.298;21.164;2023-07-20T07:30:18;16.20;1.00
18317;DHT22;9284;52.298;21.164;2023-07-20T07:32:47;16.10;1.00
18317;DHT22;9284;52.298;21.164;2023-07-20T07:35:16;16.00;1.00
18317;DHT22;9284;52.298;21.164;2023-07-20T07:37:45;15.90;1.00
18317;DHT22;9284;52.298;21.164;2023-07-20T07:40:35;15.90;1.00
18317;DHT22;9284;52.298;21.164;2023-07-20T07:43:07;15.80;1.00
18317;DHT22;9284;52.298;21.164;2023-07-20T07:45:36;15.70;1.00
18317;DHT22;9284;52.298;21.164;2023-07-20T07:48:05;15.60;1.00
18317;DHT22;9284;52.298;21.164;2023-07-20T07:50:37;15.60;1.00
18317;DHT22;9284;52.298;21.164;2023-07-20T07:53:07;15.60;1.00
18317;DHT22;9284;52.298;21.164;2023-07-20T07:55:38;15.60;1.00
18317;DHT22;9284;52.298;21.164;2023-07-20T07:58:06;15.60;1.00
18317;DHT22;9284;52.298;21.164;2023-07-20T08:00:35;15.60;1.00
18317;DHT22;9284;52.298;21.164;2023-07-20T08:03:03;15.50;1.00
18317;DHT22;9284;52.298;21.164;2023-07-20T08:05:32;15.50;1.00
18317;DHT22;9284;52.298;21.164;2023-07-20T08:08:02;15.50;1.00
18317;DHT22;9284;52.298;21.164;2023-07-20T08:10:30;15.40;1.00
18317;DHT22;9284;52.298;21.164;2023-07-20T08:13:00;15.40;1.00
18317;DHT22;9284;52.298;21.164;2023-07-20T08:15:29;15.50;1.00
18317;DHT22;9284;52.298;21.164;2023-07-20T08:17:57;15.40;1.00
18317;DHT22;9284;52.298;21.164;2023-07-20T08:20:26;15.50;42.10
18317;DHT22;9284;52.298;21.164;2023-07-20T08:22:54;15.50;54.00
18317;DHT22;9284;52.298;21.164;2023-07-20T08:25:23;15.50;78.30
18317;DHT22;9284;52.298;21.164;2023-07-20T08:27:51;15.60;87.70
18317;DHT22;9284;52.298;21.164;2023-07-20T08:30:22;15.60;73.40
18317;DHT22;9284;52.298;21.164;2023-07-20T08:32:51;15.60;24.90
18317;DHT22;9284;52.298;21.164;2023-07-20T08:35:20;15.60;12.60
18317;DHT22;9284;52.298;21.164;2023-07-20T08:37:49;15.60;1.00
18317;DHT22;9284;52.298;21.164;2023-07-20T08:40:18;15.60;5.80
18317;DHT22;9284;52.298;21.164;2023-07-20T08:42:46;15.60;1.00
18317;DHT22;9284;52.298;21.164;2023-07-20T08:45:16;15.70;1.00
18317;DHT22;9284;52.298;21.164;2023-07-20T08:47:47;15.70;5.30
18317;DHT22;9284;52.298;21.164;2023-07-20T08:50:17;15.70;1.00
18317;DHT22;9284;52.298;21.164;2023-07-20T08:52:46;15.70;1.00
18317;DHT22;9284;52.298;21.164;2023-07-20T08:55:14;15.70;1.00
18317;DHT22;9284;52.298;21.164;2023-07-20T08:57:44;15.70;1.00
18317;DHT22;9284;52.298;21.164;2023-07-20T09:00:15;15.60;1.00
18317;DHT22;9284;52.298;21.164;2023-07-20T09:02:47;15.60;1.00
18317;DHT22;9284;52.298;21.164;2023-07-20T09:05:16;15.50;1.00
18317;DHT22;9284;52.298;21.164;2023-07-20T09:07:46;15.50;1.00
18317;DHT22;9284;52.298;21.164;2023-07-20T09:10:15;15.60;1.00
18317;DHT22;9284;52.298;21.164;2023-07-20T09:12:44;15.50;1.00
18317;DHT22;9284;52.298;21.164;2023-07-20T09:15:12;15.60;1.00
18317;DHT22;9284;52.298;21.164;2023-07-20T09:17:47;15.70;1.00
18317;DHT22;9284;52.298;21.164;2023-07-20T09:20:16;15.60;1.00
18317;DHT22;9284;52.298;21.164;2023-07-20T09:22:50;15.80;1.00
18317;DHT22;9284;52.298;21.164;2023-07-20T09:25:20;15.80;1.00
18317;DHT22;9284;52.298;21.164;2023-07-20T09:27:51;15.90;1.00
18317;DHT22;9284;52.298;21.164;2023-07-20T09:30:24;15.80;1.00
18317;DHT22;9284;52.298;21.164;2023-07-20T09:32:58;15.90;1.00
18317;DHT22;9284;52.298;21.164;2023-07-20T09:35:27;15.90;1.00
18317;DHT22;9284;52.298;21.164;2023-07-20T09:38:09;15.90;23.80
18317;DHT22;9284;52.298;21.164;2023-07-20T09:40:41;15.90;1.10
18317;DHT22;9284;52.298;21.164;2023-07-20T09:43:12;15.90;15.60
18317;DHT22;9284;52.298;21.164;2023-07-20T09:45:44;16.10;98.70
18317;DHT22;9284;52.298;21.164;2023-07-20T09:48:16;16.30;41.70
18317;DHT22;9284;52.298;21.164;2023-07-20T09:50:53;16.40;1.00
18317;DHT22;9284;52.298;21.164;2023-07-20T09:53:24;16.40;1.00
18317;DHT22;9284;52.298;21.164;2023-07-20T09:55:52;16.50;1.00
18317;DHT22;9284;52.298;21.164;2023-07-20T09:58:22;16.60;99.90
18317;DHT22;9284;52.298;21.164;2023-07-20T10:00:51;16.80;1.00
18317;DHT22;9284;52.298;21.164;2023-07-20T10:03:25;16.70;99.90
18317;DHT22;9284;52.298;21.164;2023-07-20T10:06:05;16.70;1.00
18317;DHT22;9284;52.298;21.164;2023-07-20T10:08:38;17.00;82.10
18317;DHT22;9284;52.298;21.164;2023-07-20T10:11:10;17.30;1.00
18317;DHT22;9284;52.298;21.164;2023-07-20T10:13:41;17.40;1.00
18317;DHT22;9284;52.298;21.164;2023-07-20T10:16:14;17.40;99.90
18317;DHT22;9284;52.298;21.164;2023-07-20T10:18:49;17.50;99.90
18317;DHT22;9284;52.298;21.164;2023-07-20T10:21:20;17.50;99.90
18317;DHT22;9284;52.298;21.164;2023-07-20T10:23:53;17.20;42.40
18317;DHT22;9284;52.298;21.164;2023-07-20T10:26:25;17.20;1.00
18317;DHT22;9284;52.298;21.164;2023-07-20T10:28:54;17.60;99.90
18317;DHT22;9284;52.298;21.164;2023-07-20T10:31:24;17.50;99.90
18317;DHT22;9284;52.298;21.164;2023-07-20T10:33:56;17.50;99.90
18317;DHT22;9284;52.298;21.164;2023-07-20T10:36:25;17.50;1.00
18317;DHT22;9284;52.298;21.164;2023-07-20T10:38:58;17.50;99.90
18317;DHT22;9284;52.298;21.164;2023-07-20T10:41:28;17.50;1.00
18317;DHT22;9284;52.298;21.164;2023-07-20T10:44:01;17.40;99.90
18317;DHT22;9284;52.298;21.164;2023-07-20T10:46:42;17.30;99.90
18317;DHT22;9284;52.298;21.164;2023-07-20T10:49:13;17.30;99.90
18317;DHT22;9284;52.298;21.164;2023-07-20T10:51:44;17.30;1.00
18317;DHT22;9284;52.298;21.164;2023-07-20T10:54:47;17.20;1.00
18317;DHT22;9284;52.298;21.164;2023-07-20T10:57:24;17.30;65.20
18317;DHT22;9284;52.298;21.164;2023-07-20T10:59:52;17.40;1.00
18317;DHT22;9284;52.298;21.164;2023-07-20T11:02:42;17.50;1.00
18317;DHT22;9284;52.298;21.164;2023-07-20T11:05:37;17.80;3.80
18317;DHT22;9284;52.298;21.164;2023-07-20T11:08:09;18.00;1.00
18317;DHT22;9284;52.298;21.164;2023-07-20T11:10:38;18.00;1.00
18317;DHT22;9284;52.298;21.164;2023-07-20T11:13:21;18.00;99.90
18317;DHT22;9284;52.298;21.164;2023-07-20T11:16:04;18.00;99.90
18317;DHT22;9284;52.298;21.164;2023-07-20T11:18:36;17.90;24.30
18317;DHT22;9284;52.298;21.164;2023-07-20T11:21:11;18.40;90.20
18317;DHT22;9284;52.298;21.164;2023-07-20T11:23:39;18.70;1.00
18317;DHT22;9284;52.298;21.164;2023-07-20T11:26:08;19.10;99.90
18317;DHT22;9284;52.298;21.164;2023-07-20T11:28:38;19.10;1.00
18317;DHT22;9284;52.298;21.164;2023-07-20T11:31:06;19.00;99.90
18317;DHT22;9284;52.298;21.164;2023-07-20T11:33:35;18.90;90.40
18317;DHT22;9284;52.298;21.164;2023-07-20T11:36:04;19.10;99.90
18317;DHT22;9284;52.298;21.164;2023-07-20T11:38:55;19.10;1.00
18317;DHT22;9284;52.298;21.164;2023-07-20T11:41:23;19.20;1.00
18317;DHT22;9284;52.298;21.164;2023-07-20T11:43:53;19.30;1.00
18317;DHT22;9284;52.298;21.164;2023-07-20T11:46:22;19.60;1.00
18317;DHT22;9284;52.298;21.164;2023-07-20T11:48:57;20.00;68.60
18317;DHT22;9284;52.298;21.164;2023-07-20T11:51:27;20.40;1.00
18317;DHT22;9284;52.298;21.164;2023-07-20T11:53:58;20.80;99.90
18317;DHT22;9284;52.298;21.164;2023-07-20T11:56:27;21.00;99.90
18317;DHT22;9284;52.298;21.164;2023-07-20T11:58:56;20.80;1.00
18317;DHT22;9284;52.298;21.164;2023-07-20T12:01:27;20.80;1.00
18317;DHT22;9284;52.298;21.164;2023-07-20T12:03:56;20.80;1.00
18317;DHT22;9284;52.298;21.164;2023-07-20T12:06:27;20.60;30.30
18317;DHT22;9284;52.298;21.164;2023-07-20T12:08:58;21.00;1.00
18317;DHT22;9284;52.298;21.164;2023-07-20T12:11:34;20.90;1.00
18317;DHT22;9284;52.298;21.164;2023-07-20T12:14:03;20.70;1.00
18317;DHT22;9284;52.298;21.164;2023-07-20T12:16:43;21.00;1.00
18317;DHT22;9284;52.298;21.164;2023-07-20T12:19:12;21.00;1.00
18317;DHT22;9284;52.298;21.164;2023-07-20T12:21:41;20.90;1.00
18317;DHT22;9284;52.298;21.164;2023-07-20T12:24:11;20.80;1.00
18317;DHT22;9284;52.298;21.164;2023-07-20T12:26:40;20.60;1.00
18317;DHT22;9284;52.298;21.164;2023-07-20T12:29:08;20.50;1.00
18317;DHT22;9284;52.298;21.164;2023-07-20T12:31:36;20.80;1.00
18317;DHT22;9284;52.298;21.164;2023-07-20T12:34:05;20.90;1.00
18317;DHT22;9284;52.298;21.164;2023-07-20T12:36:35;20.80;1.00
18317;DHT22;9284;52.298;21.164;2023-07-20T12:39:03;21.00;1.00
18317;DHT22;9284;52.298;21.164;2023-07-20T12:41:33;21.00;1.00
18317;DHT22;9284;52.298;21.164;2023-07-20T12:44:02;21.50;1.00
18317;DHT22;9284;52.298;21.164;2023-07-20T12:46:30;21.70;99.90
18317;DHT22;9284;52.298;21.164;2023-07-20T12:49:02;21.80;99.90
18317;DHT22;9284;52.298;21.164;2023-07-20T12:51:30;22.00;99.90
18317;DHT22;9284;52.298;21.164;2023-07-20T12:53:58;22.00;99.90
18317;DHT22;9284;52.298;21.164;2023-07-20T12:56:27;22.30;99.90
18317;DHT22;9284;52.298;21.164;2023-07-20T12:58:59;22.30;97.70
18317;DHT22;9284;52.298;21.164;2023-07-20T13:01:29;22.00;94.50
18317;DHT22;9284;52.298;21.164;2023-07-20T13:03:58;21.90;97.00
18317;DHT22;9284;52.298;21.164;2023-07-20T13:06:30;21.80;99.90
18317;DHT22;9284;52.298;21.164;2023-07-20T13:09:00;21.80;99.90
18317;DHT22;9284;52.298;21.164;2023-07-20T13:11:28;21.70;99.90
18317;DHT22;9284;52.298;21.164;2023-07-20T13:13:57;21.60;99.90
18317;DHT22;9284;52.298;21.164;2023-07-20T13:16:26;21.60;99.90
18317;DHT22;9284;52.298;21.164;2023-07-20T13:18:55;21.50;99.90
18317;DHT22;9284;52.298;21.164;2023-07-20T13:21:24;21.70;99.90
18317;DHT22;9284;52.298;21.164;2023-07-20T13:23:53;21.80;99.90
18317;DHT22;9284;52.298;21.164;2023-07-20T13:26:21;21.80;91.80
18317;DHT22;9284;52.298;21.164;2023-07-20T13:28:50;22.00;99.90
18317;DHT22;9284;52.298;21.164;2023-07-20T13:31:21;22.40;99.90
18317;DHT22;9284;52.298;21.164;2023-07-20T13:33:52;22.40;91.00
18317;DHT22;9284;52.298;21.164;2023-07-20T13:36:25;22.40;94.00
18317;DHT22;9284;52.298;21.164;2023-07-20T13:38:56;22.30;82.00
18317;DHT22;9284;52.298;21.164;2023-07-20T13:41:26;22.20;72.90
18317;DHT22;9284;52.298;21.164;2023-07-20T13:43:56;22.00;92.30
18317;DHT22;9284;52.298;21.164;2023-07-20T13:46:24;21.80;81.70
18317;DHT22;9284;52.298;21.164;2023-07-20T13:48:57;22.20;83.00
18317;DHT22;9284;52.298;21.164;2023-07-20T13:51:25;22.40;84.30
18317;DHT22;9284;52.298;21.164;2023-07-20T13:53:54;22.60;72.60
18317;DHT22;9284;52.298;21.164;2023-07-20T13:56:23;22.50;70.30
18317;DHT22;9284;52.298;21.164;2023-07-20T13:58:52;22.50;71.50
18317;DHT22;9284;52.298;21.164;2023-07-20T14:01:20;22.40;68.40
18317;DHT22;9284;52.298;21.164;2023-07-20T14:03:53;22.60;65.90
18317;DHT22;9284;52.298;21.164;2023-07-20T14:06:23;22.40;72.60
18317;DHT22;9284;52.298;21.164;2023-07-20T14:08:56;22.20;99.30
18317;DHT22;9284;52.298;21.164;2023-07-20T14:11:25;22.20;93.40
18317;DHT22;9284;52.298;21.164;2023-07-20T14:13:56;21.90;78.60
18317;DHT22;9284;52.298;21.164;2023-07-20T14:16:25;21.80;91.10
18317;DHT22;9284;52.298;21.164;2023-07-20T14:18:54;21.80;99.90
18317;DHT22;9284;52.298;21.164;2023-07-20T14:21:24;21.70;97.10
18317;DHT22;9284;52.298;21.164;2023-07-20T14:23:52;21.60;90.00
18317;DHT22;9284;52.298;21.164;2023-07-20T14:26:21;21.50;99.90
18317;DHT22;9284;52.298;21.164;2023-07-20T14:28:49;21.40;99.90
18317;DHT22;9284;52.298;21.164;2023-07-20T14:31:18;21.30;99.90
18317;DHT22;9284;52.298;21.164;2023-07-20T14:33:47;21.30;99.90
18317;DHT22;9284;52.298;21.164;2023-07-20T14:36:16;21.20;99.90
18317;DHT22;9284;52.298;21.164;2023-07-20T14:38:46;21.20;99.90
18317;DHT22;9284;52.298;21.164;2023-07-20T14:41:15;21.30;99.90
18317;DHT22;9284;52.298;21.164;2023-07-20T14:43:44;21.30;99.90
18317;DHT22;9284;52.298;21.164;2023-07-20T14:46:12;21.20;99.90
18317;DHT22;9284;52.298;21.164;2023-07-20T14:48:41;21.10;99.90
18317;DHT22;9284;52.298;21.164;2023-07-20T14:51:09;21.00;99.90
18317;DHT22;9284;52.298;21.164;2023-07-20T14:53:37;20.90;99.90
18317;DHT22;9284;52.298;21.164;2023-07-20T14:56:07;20.70;99.90
18317;DHT22;9284;52.298;21.164;2023-07-20T14:58:36;20.60;1.00
18317;DHT22;9284;52.298;21.164;2023-07-20T15:01:04;20.50;1.00
18317;DHT22;9284;52.298;21.164;2023-07-20T15:03:33;20.30;1.00
18317;DHT22;9284;52.298;21.164;2023-07-20T15:06:01;20.20;1.00
18317;DHT22;9284;52.298;21.164;2023-07-20T15:08:30;20.00;1.00
18317;DHT22;9284;52.298;21.164;2023-07-20T15:10:59;19.90;1.00
18317;DHT22;9284;52.298;21.164;2023-07-20T15:13:28;19.70;99.90
18317;DHT22;9284;52.298;21.164;2023-07-20T15:15:57;19.50;44.40
18317;DHT22;9284;52.298;21.164;2023-07-20T15:18:25;19.40;99.90
18317;DHT22;9284;52.298;21.164;2023-07-20T15:21:12;19.50;1.00
18317;DHT22;9284;52.298;21.164;2023-07-20T15:23:41;19.50;1.00
18317;DHT22;9284;52.298;21.164;2023-07-20T15:26:09;19.40;99.90
18317;DHT22;9284;52.298;21.164;2023-07-20T15:28:40;19.40;99.90
18317;DHT22;9284;52.298;21.164;2023-07-20T15:31:09;19.30;99.90
18317;DHT22;9284;52.298;21.164;2023-07-20T15:33:37;19.30;99.90
18317;DHT22;9284;52.298;21.164;2023-07-20T15:36:06;19.30;99.90
18317;DHT22;9284;52.298;21.164;2023-07-20T15:38:35;19.40;99.90
18317;DHT22;9284;52.298;21.164;2023-07-20T15:41:03;19.40;99.90
18317;DHT22;9284;52.298;21.164;2023-07-20T15:43:31;19.50;99.90
18317;DHT22;9284;52.298;21.164;2023-07-20T15:48:59;19.40;99.90
18317;DHT22;9284;52.298;21.164;2023-07-20T15:51:30;19.30;99.90
18317;DHT22;9284;52.298;21.164;2023-07-20T15:53:58;19.20;99.90
18317;DHT22;9284;52.298;21.164;2023-07-20T15:56:27;19.20;99.90
18317;DHT22;9284;52.298;21.164;2023-07-20T15:58:55;19.10;99.90
18317;DHT22;9284;52.298;21.164;2023-07-20T16:01:26;19.10;99.90